createdAt,value
2023-03-06T00:00:47.869Z,7.44
2023-03-06T00:03:14.835Z,7.55
2023-03-06T00:05:42.163Z,7.58
2023-03-06T00:08:08.680Z,7.58
2023-03-06T00:10:35.209Z,7.68
2023-03-06T00:13:04.888Z,7.69
2023-03-06T00:15:31.846Z,7.54
2023-03-06T00:17:58.418Z,7.42
2023-03-06T00:20:25.830Z,7.24
2023-03-06T00:22:52.264Z,7.27
2023-03-06T00:25:20.809Z,7.21
2023-03-06T00:27:49.290Z,7.28
2023-03-06T00:30:20.316Z,7.17
2023-03-06T00:32:47.200Z,7.12
2023-03-06T00:35:14.737Z,7.11
2023-03-06T00:37:42.938Z,7.22
2023-03-06T00:40:14.651Z,7.27
2023-03-06T00:42:41.270Z,7.38
2023-03-06T00:45:08.668Z,7.48
2023-03-06T00:47:35.269Z,7.46
2023-03-06T00:50:01.687Z,7.32
2023-03-06T00:52:28.188Z,7.37
2023-03-06T00:54:54.623Z,7.38
2023-03-06T00:57:21.332Z,7.41
2023-03-06T00:59:47.830Z,7.25
2023-03-06T01:02:14.742Z,7.15
2023-03-06T01:04:41.429Z,7.27
2023-03-06T01:07:08.334Z,7.36
2023-03-06T01:09:34.756Z,7.47
2023-03-06T01:12:01.190Z,7.45
2023-03-06T01:14:28.103Z,7.42
2023-03-06T01:16:54.556Z,7.31
2023-03-06T01:19:21.085Z,7.27
2023-03-06T01:21:47.587Z,7.34
2023-03-06T01:24:14.234Z,7.37
2023-03-06T01:26:40.646Z,7.39
2023-03-06T01:29:07.083Z,7.29
2023-03-06T01:31:33.648Z,7.36
2023-03-06T01:34:00.243Z,7.25
2023-03-06T01:36:26.649Z,7.07
2023-03-06T01:38:53.119Z,7.07
2023-03-06T01:41:21.397Z,7.04
2023-03-06T01:43:48.988Z,7.02
2023-03-06T01:46:44.874Z,6.99
2023-03-06T01:49:16.869Z,6.86
2023-03-06T01:51:49.233Z,6.82
2023-03-06T01:54:29.651Z,6.84
2023-03-06T01:57:02.233Z,6.88
2023-03-06T01:59:29.247Z,6.99
2023-03-06T02:01:57.186Z,7.17
2023-03-06T02:04:24.456Z,7.24
2023-03-06T02:06:51.156Z,7.32
2023-03-06T02:09:17.723Z,7.42
2023-03-06T02:11:46.216Z,7.44
2023-03-06T02:14:15.796Z,7.45
2023-03-06T02:16:44.395Z,7.43
2023-03-06T02:19:29.337Z,7.32
2023-03-06T02:21:55.909Z,7.16
2023-03-06T02:24:48.305Z,7.00
2023-03-06T02:27:15.853Z,6.89
2023-03-06T02:29:45.496Z,6.94
2023-03-06T02:32:12.004Z,6.95
2023-03-06T02:34:38.471Z,6.98
2023-03-06T02:37:09.791Z,6.94
2023-03-06T02:39:41.226Z,6.84
2023-03-06T02:42:07.704Z,6.94
2023-03-06T02:44:35.872Z,6.99
2023-03-06T02:47:02.723Z,6.73
2023-03-06T02:49:29.145Z,6.58
2023-03-06T02:51:55.520Z,6.51
2023-03-06T02:54:21.914Z,6.69
2023-03-06T02:56:48.555Z,6.82
2023-03-06T02:59:14.984Z,6.74
2023-03-06T03:01:41.497Z,6.50
2023-03-06T03:04:08.544Z,6.34
2023-03-06T03:06:35.003Z,6.30
2023-03-06T03:09:01.454Z,6.33
2023-03-06T03:11:27.930Z,6.28
2023-03-06T03:13:54.455Z,6.22
2023-03-06T03:16:21.057Z,6.21
2023-03-06T03:18:53.856Z,6.18
2023-03-06T03:21:20.262Z,6.23
2023-03-06T03:23:46.692Z,6.13
2023-03-06T03:26:16.365Z,6.12
2023-03-06T03:28:43.183Z,6.11
2023-03-06T03:31:11.074Z,5.96
2023-03-06T03:33:37.818Z,5.71
2023-03-06T03:36:06.765Z,5.80
2023-03-06T03:38:34.274Z,5.58
2023-03-06T03:41:01.669Z,5.56
2023-03-06T03:43:28.138Z,5.66
2023-03-06T03:45:54.832Z,5.81
2023-03-06T03:48:21.505Z,5.96
2023-03-06T03:50:47.997Z,6.01
2023-03-06T03:53:14.568Z,5.79
2023-03-06T03:55:41.031Z,5.81
2023-03-06T03:58:07.438Z,5.76
2023-03-06T04:00:33.851Z,5.49
2023-03-06T04:03:00.550Z,5.42
2023-03-06T04:05:27.119Z,5.32
2023-03-06T04:07:53.764Z,5.31
2023-03-06T04:10:20.309Z,5.54
2023-03-06T04:12:46.715Z,5.50
2023-03-06T04:15:13.165Z,5.60
2023-03-06T04:17:39.584Z,5.65
2023-03-06T04:20:06.644Z,5.78
2023-03-06T04:22:33.063Z,5.90
2023-03-06T04:24:59.444Z,5.89
2023-03-06T04:27:25.874Z,5.84
2023-03-06T04:29:56.195Z,5.60
2023-03-06T04:32:23.842Z,5.56
2023-03-06T04:34:50.549Z,5.46
2023-03-06T04:37:20.892Z,5.55
2023-03-06T04:39:47.636Z,5.64
2023-03-06T04:42:14.605Z,5.65
2023-03-06T04:44:41.146Z,5.66
2023-03-06T04:47:07.700Z,5.71
2023-03-06T04:49:34.403Z,5.78
2023-03-06T04:52:00.853Z,5.72
2023-03-06T04:54:27.278Z,5.75
2023-03-06T04:56:53.683Z,5.71
2023-03-06T04:59:20.705Z,5.66
2023-03-06T05:01:47.426Z,5.60
2023-03-06T05:04:15.201Z,5.53
2023-03-06T05:06:41.732Z,5.46
2023-03-06T05:09:08.254Z,5.37
2023-03-06T05:11:34.779Z,5.37
2023-03-06T05:14:01.213Z,5.34
2023-03-06T05:16:27.695Z,5.30
2023-03-06T05:18:54.233Z,5.37
2023-03-06T05:21:20.795Z,5.46
2023-03-06T05:23:47.581Z,5.44
2023-03-06T05:26:15.998Z,5.31
2023-03-06T05:28:43.302Z,5.29
2023-03-06T05:31:09.844Z,5.13
2023-03-06T05:33:37.063Z,5.04
2023-03-06T05:36:04.109Z,5.08
2023-03-06T05:38:30.567Z,5.15
2023-03-06T05:40:57.005Z,5.04
2023-03-06T05:43:23.651Z,5.15
2023-03-06T05:45:53.130Z,5.14
2023-03-06T05:48:19.591Z,5.08
2023-03-06T05:50:45.965Z,4.89
2023-03-06T05:53:13.122Z,4.88
2023-03-06T05:55:39.632Z,4.94
2023-03-06T05:58:06.078Z,4.87
2023-03-06T06:00:32.501Z,4.94
2023-03-06T06:03:01.962Z,5.03
2023-03-06T06:05:28.913Z,5.03
2023-03-06T06:07:55.327Z,5.04
2023-03-06T06:10:21.831Z,4.94
2023-03-06T06:12:48.299Z,4.92
2023-03-06T06:15:15.401Z,5.00
2023-03-06T06:17:41.784Z,5.12
2023-03-06T06:20:09.030Z,5.18
2023-03-06T06:22:37.847Z,5.24
2023-03-06T06:25:05.860Z,5.20
2023-03-06T06:27:32.424Z,5.16
2023-03-06T06:29:58.780Z,5.24
2023-03-06T06:32:25.316Z,5.29
2023-03-06T06:34:51.865Z,5.40
2023-03-06T06:37:18.334Z,5.45
2023-03-06T06:39:44.881Z,5.45
2023-03-06T06:42:29.427Z,5.33
2023-03-06T06:44:56.912Z,5.18
2023-03-06T06:47:25.191Z,5.18
2023-03-06T06:49:53.740Z,5.29
2023-03-06T06:52:20.467Z,5.42
2023-03-06T06:54:47.077Z,5.55
2023-03-06T06:57:14.817Z,5.66
2023-03-06T06:59:41.829Z,5.77
2023-03-06T07:02:10.170Z,5.81
2023-03-06T07:04:36.603Z,5.90
2023-03-06T07:07:03.541Z,5.85
2023-03-06T07:09:31.423Z,5.87
2023-03-06T07:11:58.205Z,5.86
2023-03-06T07:14:24.837Z,5.91
2023-03-06T07:16:51.310Z,5.95
2023-03-06T07:19:18.272Z,6.01
2023-03-06T07:21:45.035Z,6.07
2023-03-06T07:24:12.809Z,6.05
2023-03-06T07:26:39.317Z,5.95
2023-03-06T07:29:05.823Z,6.01
2023-03-06T07:31:32.388Z,6.01
2023-03-06T07:33:58.925Z,6.10
2023-03-06T07:36:25.387Z,6.15
2023-03-06T07:38:51.848Z,6.17
2023-03-06T07:41:22.150Z,6.23
2023-03-06T07:43:49.740Z,6.35
2023-03-06T07:46:16.279Z,6.38
2023-03-06T07:48:43.188Z,6.46
2023-03-06T07:51:15.956Z,6.42
2023-03-06T07:53:42.988Z,6.56
2023-03-06T07:56:11.118Z,6.58
2023-03-06T07:58:39.966Z,6.56
2023-03-06T08:01:08.975Z,6.62
2023-03-06T08:03:35.599Z,6.57
2023-03-06T08:06:10.126Z,6.56
2023-03-06T08:08:39.294Z,6.61
2023-03-06T08:11:07.402Z,6.59
2023-03-06T08:13:34.117Z,6.54
2023-03-06T08:16:00.607Z,6.64
2023-03-06T08:18:28.646Z,6.73
2023-03-06T08:21:10.113Z,6.84
2023-03-06T08:23:37.420Z,6.94
2023-03-06T08:26:06.723Z,7.02
2023-03-06T08:28:33.463Z,7.00
2023-03-06T08:31:11.566Z,6.98
2023-03-06T08:33:39.194Z,7.01
2023-03-06T08:36:05.753Z,6.96
2023-03-06T08:38:32.191Z,7.16
2023-03-06T08:40:58.617Z,7.38
2023-03-06T08:43:25.544Z,7.67
2023-03-06T08:45:57.331Z,7.73
2023-03-06T08:48:24.043Z,7.59
2023-03-06T08:50:50.766Z,7.72
2023-03-06T08:53:17.612Z,7.91
2023-03-06T08:55:44.816Z,8.13
2023-03-06T08:58:11.480Z,8.28
2023-03-06T09:00:38.578Z,8.14
2023-03-06T09:03:05.734Z,8.15
2023-03-06T09:05:32.404Z,8.13
2023-03-06T09:07:58.855Z,8.07
2023-03-06T09:10:26.805Z,8.08
2023-03-06T09:12:55.122Z,7.83
2023-03-06T09:15:23.400Z,7.77
2023-03-06T09:17:51.308Z,7.80
2023-03-06T09:20:19.084Z,7.80
2023-03-06T09:22:45.870Z,7.88
2023-03-06T09:25:14.325Z,8.00
2023-03-06T09:27:41.151Z,7.92
2023-03-06T09:30:09.004Z,8.36
2023-03-06T09:32:35.707Z,8.44
2023-03-06T09:35:02.133Z,8.62
2023-03-06T09:37:28.654Z,8.67
2023-03-06T09:39:55.405Z,8.48
2023-03-06T09:42:23.772Z,8.78
2023-03-06T09:45:00.732Z,9.15
2023-03-06T09:47:49.114Z,9.42
2023-03-06T09:50:35.187Z,9.71
2023-03-06T09:53:31.331Z,10.02
2023-03-06T09:56:11.067Z,9.89
2023-03-06T09:58:49.921Z,9.84
2023-03-06T10:01:22.052Z,9.76
2023-03-06T10:04:19.356Z,9.89
2023-03-06T10:06:53.279Z,9.98
2023-03-06T10:09:27.976Z,10.01
2023-03-06T10:12:13.315Z,9.97
2023-03-06T10:14:52.854Z,10.03
2023-03-06T10:17:22.432Z,9.85
2023-03-06T10:19:49.779Z,9.66
2023-03-06T10:22:25.871Z,9.85
2023-03-06T10:25:06.879Z,10.01
2023-03-06T10:27:45.332Z,10.35
2023-03-06T10:30:46.201Z,10.12
2023-03-06T10:33:21.783Z,10.30
2023-03-06T10:35:50.768Z,10.55
2023-03-06T10:38:26.131Z,10.27
2023-03-06T10:41:10.882Z,9.99
2023-03-06T10:44:05.385Z,9.95
2023-03-06T10:46:33.270Z,10.05
2023-03-06T10:49:03.076Z,10.38
2023-03-06T10:51:30.784Z,10.54
2023-03-06T10:54:18.982Z,10.20
2023-03-06T10:56:47.086Z,10.30
2023-03-06T10:59:30.923Z,10.35
2023-03-06T11:02:14.470Z,10.26
2023-03-06T11:04:44.952Z,10.20
2023-03-06T11:07:27.265Z,10.27
2023-03-06T11:10:00.032Z,10.48
2023-03-06T11:12:32.262Z,10.07
2023-03-06T11:15:14.596Z,10.22
2023-03-06T11:18:10.123Z,9.98
2023-03-06T11:20:51.360Z,9.64
2023-03-06T11:23:39.020Z,9.58
2023-03-06T11:26:17.491Z,9.79
2023-03-06T11:29:01.890Z,10.07
2023-03-06T11:31:32.264Z,10.28
2023-03-06T11:34:07.510Z,10.28
2023-03-06T11:36:58.603Z,10.27
2023-03-06T11:39:48.052Z,10.61
2023-03-06T11:42:23.986Z,10.88
2023-03-06T11:45:18.162Z,10.88
2023-03-06T11:48:08.538Z,10.90
2023-03-06T11:50:38.619Z,10.56
2023-03-06T11:53:10.476Z,10.55
2023-03-06T11:56:14.578Z,10.71
2023-03-06T11:59:00.139Z,11.26
2023-03-06T12:02:05.579Z,11.31
2023-03-06T12:04:50.992Z,11.12
2023-03-06T12:07:31.265Z,10.94
2023-03-06T12:10:27.772Z,11.07
2023-03-06T12:13:04.234Z,10.85
2023-03-06T12:15:55.540Z,10.62
2023-03-06T12:18:51.318Z,10.59
2023-03-06T12:21:59.300Z,10.61
2023-03-06T12:24:53.984Z,10.14
2023-03-06T12:27:36.398Z,10.09
2023-03-06T12:30:33.724Z,9.73
2023-03-06T12:33:38.899Z,10.02
2023-03-06T12:36:24.256Z,9.81
2023-03-06T12:39:00.604Z,9.66
2023-03-06T12:41:51.800Z,9.75
2023-03-06T12:44:25.057Z,9.72
2023-03-06T12:46:59.115Z,9.73
2023-03-06T12:49:33.148Z,9.82
2023-03-06T12:52:02.109Z,9.83
2023-03-06T12:54:33.463Z,9.52
2023-03-06T12:57:00.889Z,9.34
2023-03-06T12:59:38.078Z,9.19
2023-03-06T13:02:32.550Z,9.23
2023-03-06T13:05:00.257Z,9.32
2023-03-06T13:07:46.451Z,9.71
2023-03-06T13:10:23.114Z,9.65
2023-03-06T13:12:56.132Z,9.60
2023-03-06T13:16:04.897Z,9.73
2023-03-06T13:18:31.253Z,9.59
2023-03-06T13:20:58.113Z,9.57
2023-03-06T13:23:33.984Z,9.77
2023-03-06T13:26:01.984Z,9.59
2023-03-06T13:28:50.374Z,9.49
2023-03-06T13:31:27.904Z,9.55
2023-03-06T13:33:54.801Z,9.64
2023-03-06T13:36:30.661Z,9.73
2023-03-06T13:39:07.457Z,9.57
2023-03-06T13:41:45.369Z,9.50
2023-03-06T13:44:40.725Z,9.39
2023-03-06T13:47:18.201Z,9.12
2023-03-06T13:49:48.184Z,9.21
2023-03-06T13:52:33.236Z,9.48
2023-03-06T13:55:17.848Z,9.34
2023-03-06T13:58:19.960Z,9.34
2023-03-06T14:01:20.649Z,8.99
2023-03-06T14:04:26.113Z,9.15
2023-03-06T14:07:04.901Z,9.57
2023-03-06T14:09:41.652Z,9.63
2023-03-06T14:12:20.307Z,9.76
2023-03-06T14:14:59.168Z,9.79
2023-03-06T14:17:31.705Z,9.61
2023-03-06T14:20:03.857Z,9.58
2023-03-06T14:22:30.299Z,9.68
2023-03-06T14:25:00.652Z,9.55
2023-03-06T14:27:41.146Z,9.51
2023-03-06T14:30:25.370Z,9.56
2023-03-06T14:32:54.606Z,9.53
2023-03-06T14:35:24.405Z,9.59
2023-03-06T14:37:55.499Z,9.56
2023-03-06T14:40:29.093Z,9.62
2023-03-06T14:43:17.430Z,9.86
2023-03-06T14:45:54.352Z,9.77
2023-03-06T14:48:21.266Z,9.76
2023-03-06T14:50:53.323Z,9.86
2023-03-06T14:53:26.786Z,10.01
2023-03-06T14:55:57.809Z,9.96
2023-03-06T14:58:39.557Z,10.02
2023-03-06T15:01:11.477Z,10.21
2023-03-06T15:03:50.524Z,10.34
2023-03-06T15:06:21.316Z,10.34
2023-03-06T15:08:52.170Z,10.35
2023-03-06T15:11:18.657Z,10.35
2023-03-06T15:14:00.552Z,9.92
2023-03-06T15:16:30.176Z,9.95
2023-03-06T15:19:02.514Z,10.09
2023-03-06T15:21:38.738Z,10.05
2023-03-06T15:24:36.873Z,10.10
2023-03-06T15:27:05.945Z,10.18
2023-03-06T15:29:33.610Z,10.19
2023-03-06T15:32:29.447Z,10.19
2023-03-06T15:35:26.686Z,10.07
2023-03-06T15:37:53.480Z,10.01
2023-03-06T15:40:22.271Z,9.88
2023-03-06T15:42:52.178Z,9.93
2023-03-06T15:45:23.178Z,9.84
2023-03-06T15:47:51.400Z,9.74
2023-03-06T15:50:29.077Z,9.73
2023-03-06T15:52:55.700Z,9.67
2023-03-06T15:55:25.948Z,9.73
2023-03-06T15:57:59.517Z,9.71
2023-03-06T16:00:44.598Z,9.71
2023-03-06T16:03:11.722Z,9.80
2023-03-06T16:05:38.677Z,9.86
2023-03-06T16:08:06.097Z,9.76
2023-03-06T16:10:37.862Z,9.80
2023-03-06T16:13:08.477Z,9.85
2023-03-06T16:15:51.405Z,9.81
2023-03-06T16:18:18.396Z,9.84
2023-03-06T16:20:44.987Z,9.65
2023-03-06T16:23:11.701Z,9.63
2023-03-06T16:25:40.569Z,9.68
2023-03-06T16:28:17.545Z,9.74
2023-03-06T16:30:45.872Z,9.62
2023-03-06T16:33:14.947Z,9.62
2023-03-06T16:35:44.773Z,9.63
2023-03-06T16:38:11.358Z,9.47
2023-03-06T16:40:43.509Z,9.44
2023-03-06T16:43:10.847Z,9.33
2023-03-06T16:45:40.172Z,9.28
2023-03-06T16:48:06.988Z,9.22
2023-03-06T16:50:39.122Z,9.23
2023-03-06T16:53:06.093Z,9.17
2023-03-06T16:55:32.888Z,9.21
2023-03-06T16:57:59.734Z,9.23
2023-03-06T17:00:31.133Z,9.30
2023-03-06T17:02:57.791Z,9.17
2023-03-06T17:05:24.807Z,9.17
2023-03-06T17:07:51.885Z,9.17
2023-03-06T17:10:20.052Z,9.14
2023-03-06T17:12:46.904Z,9.06
2023-03-06T17:15:14.443Z,8.94
2023-03-06T17:17:40.892Z,8.98
2023-03-06T17:20:08.240Z,9.05
2023-03-06T17:22:36.044Z,9.05
2023-03-06T17:25:05.048Z,9.11
2023-03-06T17:27:31.518Z,9.11
2023-03-06T17:29:58.112Z,8.95
2023-03-06T17:32:25.702Z,8.88
2023-03-06T17:34:52.498Z,8.83
2023-03-06T17:37:19.328Z,8.51
2023-03-06T17:39:45.899Z,8.57
2023-03-06T17:42:13.113Z,8.48
2023-03-06T17:44:39.631Z,8.46
2023-03-06T17:47:06.274Z,8.51
2023-03-06T17:49:32.960Z,8.27
2023-03-06T17:52:00.871Z,8.16
2023-03-06T17:54:29.182Z,8.16
2023-03-06T17:56:56.762Z,8.23
2023-03-06T17:59:23.201Z,8.23
2023-03-06T18:01:49.676Z,8.32
2023-03-06T18:04:16.922Z,8.29
2023-03-06T18:06:44.438Z,8.26
2023-03-06T18:09:10.851Z,8.26
2023-03-06T18:11:37.395Z,8.19
2023-03-06T18:14:05.524Z,8.21
2023-03-06T18:16:32.212Z,8.20
2023-03-06T18:18:58.740Z,8.22
2023-03-06T18:21:26.264Z,8.22
2023-03-06T18:23:52.757Z,8.17
2023-03-06T18:26:25.092Z,8.08
2023-03-06T18:28:54.778Z,8.02
2023-03-06T18:31:24.870Z,7.98
2023-03-06T18:33:56.981Z,7.77
2023-03-06T18:36:26.008Z,7.75
2023-03-06T18:38:52.643Z,7.79
2023-03-06T18:41:21.027Z,7.69
2023-03-06T18:43:59.024Z,7.82
2023-03-06T18:46:29.053Z,7.93
2023-03-06T18:48:55.588Z,8.00
2023-03-06T18:51:22.063Z,8.10
2023-03-06T18:53:48.584Z,8.14
2023-03-06T18:56:21.213Z,8.28
2023-03-06T18:58:48.267Z,8.33
2023-03-06T19:01:15.519Z,8.27
2023-03-06T19:03:45.114Z,8.12
2023-03-06T19:06:14.783Z,8.22
2023-03-06T19:08:41.448Z,8.28
2023-03-06T19:11:11.384Z,8.34
2023-03-06T19:13:38.420Z,8.37
2023-03-06T19:16:05.635Z,8.33
2023-03-06T19:18:32.360Z,8.08
2023-03-06T19:21:17.407Z,7.94
2023-03-06T19:23:45.102Z,7.95
2023-03-06T19:26:12.271Z,8.10
2023-03-06T19:28:41.875Z,8.23
2023-03-06T19:31:15.805Z,8.26
2023-03-06T19:33:43.873Z,8.28
2023-03-06T19:36:13.544Z,8.25
2023-03-06T19:38:40.144Z,8.11
2023-03-06T19:41:11.713Z,8.08
2023-03-06T19:43:38.287Z,8.11
2023-03-06T19:46:05.433Z,8.06
2023-03-06T19:48:32.736Z,7.78
2023-03-06T19:51:07.443Z,7.69
2023-03-06T19:53:35.325Z,7.73
2023-03-06T19:56:14.786Z,7.70
2023-03-06T19:58:41.432Z,7.87
2023-03-06T20:01:22.949Z,7.86
2023-03-06T20:03:51.136Z,7.79
2023-03-06T20:06:19.678Z,7.80
2023-03-06T20:08:47.112Z,7.91
2023-03-06T20:11:24.211Z,7.97
2023-03-06T20:13:51.242Z,8.07
2023-03-06T20:16:18.924Z,8.10
2023-03-06T20:18:45.658Z,8.15
2023-03-06T20:21:12.186Z,8.15
2023-03-06T20:23:39.863Z,8.04
2023-03-06T20:26:12.112Z,8.09
2023-03-06T20:28:44.890Z,8.10
2023-03-06T20:31:17.317Z,8.17
2023-03-06T20:33:49.938Z,8.01
2023-03-06T20:36:20.091Z,8.06
2023-03-06T20:38:47.256Z,8.03
2023-03-06T20:41:20.792Z,8.11
2023-03-06T20:43:47.753Z,8.25
2023-03-06T20:46:15.871Z,8.28
2023-03-06T20:48:43.733Z,8.22
2023-03-06T20:51:21.867Z,8.26
2023-03-06T20:53:50.083Z,8.27
2023-03-06T20:56:22.398Z,8.31
2023-03-06T20:58:49.042Z,8.42
2023-03-06T21:01:19.159Z,8.46
2023-03-06T21:03:45.617Z,8.48
2023-03-06T21:06:12.029Z,8.49
2023-03-06T21:08:39.613Z,8.48
2023-03-06T21:11:06.597Z,8.35
2023-03-06T21:13:33.153Z,8.24
2023-03-06T21:15:59.788Z,8.12
2023-03-06T21:18:26.481Z,8.08
2023-03-06T21:20:53.012Z,8.04
2023-03-06T21:23:19.724Z,8.04
2023-03-06T21:25:55.445Z,8.08
2023-03-06T21:28:21.953Z,8.13
2023-03-06T21:30:48.557Z,8.20
2023-03-06T21:33:16.098Z,8.18
2023-03-06T21:35:45.853Z,8.22
2023-03-06T21:38:13.341Z,8.21
2023-03-06T21:40:40.278Z,8.17
2023-03-06T21:43:06.723Z,8.16
2023-03-06T21:45:33.148Z,8.18
2023-03-06T21:48:00.482Z,8.14
2023-03-06T21:50:28.081Z,8.15
2023-03-06T21:52:56.080Z,8.10
2023-03-06T21:55:22.762Z,8.15
2023-03-06T21:57:50.799Z,8.06
2023-03-06T22:00:19.456Z,7.80
2023-03-06T22:02:46.774Z,7.67
2023-03-06T22:05:14.399Z,7.83
2023-03-06T22:07:41.289Z,7.75
2023-03-06T22:10:11.991Z,7.73
2023-03-06T22:12:40.609Z,7.74
2023-03-06T22:15:07.820Z,7.81
2023-03-06T22:17:34.651Z,7.87
2023-03-06T22:20:01.476Z,7.66
2023-03-06T22:22:28.112Z,7.53
2023-03-06T22:24:54.538Z,7.56
2023-03-06T22:27:21.774Z,7.70
2023-03-06T22:29:48.200Z,7.80
2023-03-06T22:32:15.497Z,7.80
2023-03-06T22:34:43.299Z,7.57
2023-03-06T22:37:09.776Z,7.52
2023-03-06T22:39:36.197Z,7.60
2023-03-06T22:42:02.669Z,7.69
2023-03-06T22:44:29.101Z,7.70
2023-03-06T22:46:55.969Z,7.70
2023-03-06T22:49:22.644Z,7.68
2023-03-06T22:51:49.022Z,7.69
2023-03-06T22:54:15.516Z,7.73
2023-03-06T22:56:42.059Z,7.71
2023-03-06T22:59:08.450Z,7.76
2023-03-06T23:01:35.058Z,7.71
2023-03-06T23:04:03.543Z,7.70
2023-03-06T23:06:31.362Z,7.65
2023-03-06T23:09:07.895Z,7.64
2023-03-06T23:11:35.052Z,7.64
2023-03-06T23:14:02.016Z,7.69
2023-03-06T23:16:28.536Z,7.70
2023-03-06T23:18:54.987Z,7.65
2023-03-06T23:21:22.790Z,7.59
2023-03-06T23:23:51.698Z,7.55
2023-03-06T23:26:21.106Z,7.62
2023-03-06T23:28:47.643Z,7.59
2023-03-06T23:31:17.398Z,7.56
2023-03-06T23:33:45.040Z,7.57
2023-03-06T23:36:14.543Z,7.50
2023-03-06T23:38:46.270Z,7.45
2023-03-06T23:41:18.155Z,7.45
2023-03-06T23:43:46.174Z,7.39
2023-03-06T23:46:13.806Z,7.43
2023-03-06T23:48:41.631Z,7.42
2023-03-06T23:51:09.984Z,7.46
2023-03-06T23:53:36.430Z,7.41
2023-03-06T23:56:06.247Z,7.44
2023-03-06T23:58:33.714Z,7.48
